createdAt,value
2023-02-03T00:00:45.086Z,2.68
2023-02-03T00:03:13.303Z,2.85
2023-02-03T00:05:42.436Z,2.90
2023-02-03T00:08:11.173Z,2.84
2023-02-03T00:10:40.964Z,2.68
2023-02-03T00:13:10.116Z,2.61
2023-02-03T00:15:38.221Z,2.34
2023-02-03T00:18:07.746Z,2.69
2023-02-03T00:20:35.815Z,2.59
2023-02-03T00:23:07.560Z,2.33
2023-02-03T00:25:35.809Z,2.75
2023-02-03T00:28:04.796Z,2.80
2023-02-03T00:30:35.189Z,2.46
2023-02-03T00:33:03.252Z,2.47
2023-02-03T00:35:32.712Z,2.24
2023-02-03T00:38:00.769Z,2.34
2023-02-03T00:40:30.038Z,2.28
2023-02-03T00:42:58.303Z,2.06
2023-02-03T00:45:27.510Z,2.14
2023-02-03T00:47:55.655Z,2.69
2023-02-03T00:50:23.875Z,2.03
2023-02-03T00:52:53.291Z,1.54
2023-02-03T00:55:21.344Z,1.95
2023-02-03T00:57:49.375Z,1.84
2023-02-03T01:00:18.539Z,1.29
2023-02-03T01:02:46.752Z,1.49
2023-02-03T01:05:14.974Z,1.28
2023-02-03T01:07:43.418Z,1.46
2023-02-03T01:10:14.996Z,1.66
2023-02-03T01:12:43.097Z,1.75
2023-02-03T01:15:11.626Z,1.70
2023-02-03T01:17:39.783Z,1.64
2023-02-03T01:20:08.648Z,1.84
2023-02-03T01:22:36.750Z,1.79
2023-02-03T01:25:04.858Z,2.33
2023-02-03T01:27:34.771Z,2.38
2023-02-03T01:30:03.004Z,2.99
2023-02-03T01:32:31.072Z,2.69
2023-02-03T01:34:59.138Z,3.09
2023-02-03T01:37:27.208Z,3.01
2023-02-03T01:39:55.632Z,3.23
2023-02-03T01:42:23.683Z,3.06
2023-02-03T01:44:53.378Z,2.49
2023-02-03T01:47:29.746Z,3.03
2023-02-03T01:50:04.275Z,2.37
2023-02-03T01:52:33.900Z,2.33
2023-02-03T01:55:08.937Z,2.74
2023-02-03T01:57:43.896Z,1.96
2023-02-03T02:00:15.038Z,1.82
2023-02-03T02:02:46.724Z,1.98
2023-02-03T02:05:21.540Z,1.92
2023-02-03T02:07:50.914Z,2.18
2023-02-03T02:10:19.187Z,2.05
2023-02-03T02:12:49.064Z,2.02
2023-02-03T02:15:19.825Z,1.96
2023-02-03T02:18:06.550Z,2.14
2023-02-03T02:20:52.774Z,1.90
2023-02-03T02:23:42.791Z,2.19
2023-02-03T02:26:38.429Z,1.84
2023-02-03T02:29:28.783Z,2.30
2023-02-03T02:32:08.108Z,2.21
2023-02-03T02:34:48.025Z,1.99
2023-02-03T02:37:34.041Z,2.12
2023-02-03T02:40:13.335Z,2.27
2023-02-03T02:42:51.896Z,2.60
2023-02-03T02:45:26.464Z,2.09
2023-02-03T02:48:03.766Z,2.51
2023-02-03T02:50:38.574Z,2.50
2023-02-03T02:53:08.834Z,1.82
2023-02-03T02:55:41.285Z,1.77
2023-02-03T02:58:13.510Z,1.57
2023-02-03T03:00:42.359Z,1.64
2023-02-03T03:03:20.333Z,1.57
2023-02-03T03:05:54.482Z,0.99
2023-02-03T03:08:33.275Z,1.16
2023-02-03T03:11:04.143Z,1.30
2023-02-03T03:13:36.541Z,0.73
2023-02-03T03:16:08.851Z,0.91
2023-02-03T03:18:43.600Z,1.49
2023-02-03T03:21:17.066Z,1.07
2023-02-03T03:23:50.593Z,0.95
2023-02-03T03:26:23.730Z,1.13
2023-02-03T03:28:56.560Z,0.81
2023-02-03T03:31:25.073Z,0.88
2023-02-03T03:33:54.682Z,0.96
2023-02-03T03:36:29.012Z,1.48
2023-02-03T03:39:04.551Z,1.65
2023-02-03T03:41:40.997Z,1.69
2023-02-03T03:44:14.462Z,1.92
2023-02-03T03:46:47.236Z,1.62
2023-02-03T03:49:17.711Z,2.17
2023-02-03T03:51:49.483Z,1.45
2023-02-03T03:54:22.014Z,1.74
2023-02-03T03:56:56.104Z,1.34
2023-02-03T03:59:27.606Z,1.14
2023-02-03T04:01:56.613Z,1.43
2023-02-03T04:04:28.043Z,1.50
2023-02-03T04:06:56.992Z,2.06
2023-02-03T04:09:25.698Z,1.53
2023-02-03T04:12:02.709Z,1.62
2023-02-03T04:14:31.421Z,1.37
2023-02-03T04:16:59.973Z,1.35
2023-02-03T04:19:29.577Z,1.42
2023-02-03T04:21:58.130Z,0.92
2023-02-03T04:24:26.433Z,1.47
2023-02-03T04:26:54.570Z,1.45
2023-02-03T04:29:22.609Z,1.05
2023-02-03T04:31:50.811Z,1.51
2023-02-03T04:34:18.907Z,1.54
2023-02-03T04:36:48.402Z,1.41
2023-02-03T04:39:16.426Z,2.00
2023-02-03T04:41:44.501Z,2.03
2023-02-03T04:44:12.590Z,2.17
2023-02-03T04:46:40.630Z,1.44
2023-02-03T04:49:11.723Z,1.54
2023-02-03T04:51:39.837Z,2.11
2023-02-03T04:54:09.484Z,2.41
2023-02-03T04:56:38.053Z,2.60
2023-02-03T04:59:06.109Z,2.79
2023-02-03T05:01:34.197Z,2.49
2023-02-03T05:04:02.236Z,2.58
2023-02-03T05:06:32.201Z,2.23
2023-02-03T05:09:00.584Z,1.65
2023-02-03T05:11:30.667Z,1.97
2023-02-03T05:13:58.896Z,2.14
2023-02-03T05:16:27.075Z,2.08
2023-02-03T05:18:55.176Z,2.09
2023-02-03T05:21:23.282Z,2.27
2023-02-03T05:23:51.349Z,2.21
2023-02-03T05:26:19.923Z,2.32
2023-02-03T05:28:50.565Z,2.32
2023-02-03T05:31:18.819Z,2.44
2023-02-03T05:33:47.026Z,2.61
2023-02-03T05:36:15.080Z,1.97
2023-02-03T05:38:43.167Z,2.05
2023-02-03T05:41:29.059Z,2.03
2023-02-03T05:43:58.542Z,2.30
2023-02-03T05:46:26.621Z,2.10
2023-02-03T05:48:54.786Z,2.08
2023-02-03T05:51:22.858Z,1.50
2023-02-03T05:53:50.900Z,1.78
2023-02-03T05:56:19.027Z,1.91
2023-02-03T05:58:47.061Z,2.12
2023-02-03T06:01:17.145Z,2.05
2023-02-03T06:03:46.435Z,2.03
2023-02-03T06:06:15.032Z,1.81
2023-02-03T06:08:43.934Z,1.79
2023-02-03T06:11:12.955Z,2.05
2023-02-03T06:13:41.036Z,1.99
2023-02-03T06:16:09.568Z,1.79
2023-02-03T06:18:39.001Z,1.75
2023-02-03T06:21:07.370Z,2.22
2023-02-03T06:23:35.482Z,2.06
2023-02-03T06:26:03.519Z,2.23
2023-02-03T06:28:33.627Z,2.19
2023-02-03T06:31:02.220Z,2.38
2023-02-03T06:33:30.460Z,1.95
2023-02-03T06:35:59.927Z,2.13
2023-02-03T06:38:28.109Z,2.26
2023-02-03T06:40:56.114Z,1.50
2023-02-03T06:43:24.161Z,2.09
2023-02-03T06:45:52.471Z,1.59
2023-02-03T06:48:20.569Z,1.84
2023-02-03T06:50:48.932Z,1.84
2023-02-03T06:53:18.589Z,2.13
2023-02-03T06:55:48.013Z,1.97
2023-02-03T06:58:16.320Z,1.37
2023-02-03T07:00:44.702Z,1.81
2023-02-03T07:03:12.853Z,2.04
2023-02-03T07:05:40.945Z,1.83
2023-02-03T07:08:09.178Z,1.95
2023-02-03T07:10:38.589Z,1.87
2023-02-03T07:13:07.672Z,2.21
2023-02-03T07:15:35.830Z,2.11
2023-02-03T07:18:04.031Z,2.07
2023-02-03T07:20:33.068Z,2.27
2023-02-03T07:23:01.199Z,2.40
2023-02-03T07:25:29.376Z,2.06
2023-02-03T07:27:59.020Z,2.38
2023-02-03T07:30:27.597Z,2.57
2023-02-03T07:32:55.805Z,2.75
2023-02-03T07:35:23.912Z,3.00
2023-02-03T07:37:51.998Z,2.77
2023-02-03T07:40:20.847Z,2.92
2023-02-03T07:42:50.524Z,3.17
2023-02-03T07:45:22.250Z,2.94
2023-02-03T07:47:50.317Z,2.96
2023-02-03T07:50:19.179Z,3.02
2023-02-03T07:52:47.350Z,2.74
2023-02-03T07:55:15.449Z,2.86
2023-02-03T07:57:44.767Z,2.74
2023-02-03T08:00:14.495Z,3.07
2023-02-03T08:02:44.647Z,2.85
2023-02-03T08:05:13.418Z,3.01
2023-02-03T08:07:41.854Z,3.36
2023-02-03T08:10:11.625Z,2.70
2023-02-03T08:12:40.316Z,2.80
2023-02-03T08:15:09.280Z,2.88
2023-02-03T08:17:40.153Z,2.64
2023-02-03T08:20:11.112Z,3.04
2023-02-03T08:22:39.376Z,3.39
2023-02-03T08:25:08.680Z,3.43
2023-02-03T08:27:36.998Z,3.05
2023-02-03T08:30:06.289Z,3.21
2023-02-03T08:32:35.256Z,3.06
2023-02-03T08:35:04.377Z,3.30
2023-02-03T08:37:34.422Z,3.50
2023-02-03T08:40:02.476Z,3.36
2023-02-03T08:42:30.534Z,3.09
2023-02-03T08:44:58.732Z,3.19
2023-02-03T08:47:27.686Z,3.45
2023-02-03T08:49:55.719Z,3.75
2023-02-03T08:52:23.899Z,3.72
2023-02-03T08:54:53.403Z,3.51
2023-02-03T08:57:21.809Z,3.84
2023-02-03T08:59:51.243Z,3.38
2023-02-03T09:02:20.744Z,3.50
2023-02-03T09:04:50.061Z,3.51
2023-02-03T09:07:18.173Z,3.63
2023-02-03T09:09:46.338Z,3.30
2023-02-03T09:12:15.929Z,3.21
2023-02-03T09:14:44.231Z,3.55
2023-02-03T09:17:12.806Z,3.10
2023-02-03T09:19:41.050Z,3.81
2023-02-03T09:22:09.238Z,3.20
2023-02-03T09:24:37.614Z,3.13
2023-02-03T09:27:05.805Z,3.15
2023-02-03T09:29:35.227Z,3.38
2023-02-03T09:32:07.819Z,3.20
2023-02-03T09:34:36.052Z,3.40
2023-02-03T09:37:04.725Z,3.59
2023-02-03T09:39:32.821Z,3.40
2023-02-03T09:42:28.620Z,3.84
2023-02-03T09:45:10.732Z,4.41
2023-02-03T09:47:43.713Z,4.21
2023-02-03T09:50:15.824Z,3.93
2023-02-03T09:52:45.331Z,4.49
2023-02-03T09:55:26.875Z,4.26
2023-02-03T09:58:02.340Z,4.08
2023-02-03T10:00:35.745Z,3.84
2023-02-03T10:03:09.197Z,3.49
2023-02-03T10:06:02.958Z,3.34
2023-02-03T10:08:44.644Z,4.26
2023-02-03T10:11:23.293Z,3.64
2023-02-03T10:14:03.714Z,2.83
2023-02-03T10:16:53.438Z,3.26
2023-02-03T10:19:28.178Z,3.45
2023-02-03T10:22:00.051Z,4.17
2023-02-03T10:24:35.886Z,4.34
2023-02-03T10:27:04.230Z,3.63
2023-02-03T10:29:38.982Z,3.59
2023-02-03T10:32:10.647Z,3.24
2023-02-03T10:34:39.422Z,3.44
2023-02-03T10:37:17.072Z,3.77
2023-02-03T10:39:48.961Z,4.19
2023-02-03T10:42:18.743Z,4.32
2023-02-03T10:44:50.707Z,4.46
2023-02-03T10:47:25.350Z,3.88
2023-02-03T10:49:55.607Z,4.28
2023-02-03T10:52:32.053Z,4.37
2023-02-03T10:55:00.635Z,4.66
2023-02-03T10:57:30.657Z,4.38
2023-02-03T11:00:22.574Z,4.51
2023-02-03T11:02:58.951Z,4.16
2023-02-03T11:05:27.162Z,4.00
2023-02-03T11:07:55.991Z,4.37
2023-02-03T11:10:35.579Z,4.80
2023-02-03T11:13:14.189Z,4.59
2023-02-03T11:15:52.893Z,4.05
2023-02-03T11:18:46.521Z,4.08
2023-02-03T11:21:18.199Z,3.52
2023-02-03T11:23:51.067Z,3.84
2023-02-03T11:26:22.276Z,3.40
2023-02-03T11:28:52.766Z,3.53
2023-02-03T11:31:26.110Z,3.88
2023-02-03T11:34:03.553Z,3.17
2023-02-03T11:36:34.080Z,3.50
2023-02-03T11:39:35.922Z,3.68
2023-02-03T11:42:04.200Z,3.94
2023-02-03T11:44:33.708Z,3.61
2023-02-03T11:47:05.423Z,3.94
2023-02-03T11:50:11.336Z,3.18
2023-02-03T11:53:06.186Z,3.62
2023-02-03T11:55:44.098Z,3.29
2023-02-03T11:58:42.140Z,3.01
2023-02-03T12:01:20.387Z,3.50
2023-02-03T12:04:05.776Z,3.39
2023-02-03T12:07:01.197Z,3.71
2023-02-03T12:09:46.481Z,3.87
2023-02-03T12:12:30.117Z,3.75
2023-02-03T12:15:07.937Z,3.58
2023-02-03T12:18:01.465Z,3.81
2023-02-03T12:20:42.232Z,3.87
2023-02-03T12:23:28.286Z,3.71
2023-02-03T12:26:16.123Z,3.98
2023-02-03T12:28:51.543Z,3.93
2023-02-03T12:31:29.326Z,3.79
2023-02-03T12:34:07.237Z,3.72
2023-02-03T12:36:41.741Z,3.86
2023-02-03T12:39:21.077Z,3.84
2023-02-03T12:41:54.191Z,4.12
2023-02-03T12:44:27.757Z,3.49
2023-02-03T12:47:05.498Z,3.51
2023-02-03T12:49:41.547Z,3.99
2023-02-03T12:52:17.153Z,3.87
2023-02-03T12:54:55.965Z,3.82
2023-02-03T12:57:30.597Z,4.17
2023-02-03T13:00:06.821Z,4.43
2023-02-03T13:02:45.989Z,4.08
2023-02-03T13:05:24.126Z,4.26
2023-02-03T13:07:58.503Z,4.30
2023-02-03T13:10:36.935Z,4.61
2023-02-03T13:13:09.285Z,4.11
2023-02-03T13:15:41.865Z,4.43
2023-02-03T13:18:20.331Z,4.46
2023-02-03T13:20:48.534Z,3.93
2023-02-03T13:23:16.814Z,3.81
2023-02-03T13:26:02.620Z,4.05
2023-02-03T13:28:47.648Z,4.27
2023-02-03T13:31:27.919Z,4.44
2023-02-03T13:34:27.305Z,4.45
2023-02-03T13:37:17.478Z,4.41
2023-02-03T13:39:56.637Z,4.20
2023-02-03T13:42:29.394Z,4.10
2023-02-03T13:45:01.291Z,4.18
2023-02-03T13:47:31.353Z,4.07
2023-02-03T13:50:06.060Z,4.04
2023-02-03T13:52:39.253Z,3.96
2023-02-03T13:55:09.237Z,4.10
2023-02-03T13:57:39.898Z,3.73
2023-02-03T14:00:32.517Z,4.03
2023-02-03T14:03:00.716Z,4.09
2023-02-03T14:05:44.693Z,3.70
2023-02-03T14:08:54.752Z,3.80
2023-02-03T14:11:45.486Z,3.81
2023-02-03T14:14:57.183Z,3.68
2023-02-03T14:17:58.570Z,3.80
2023-02-03T14:20:56.328Z,3.82
2023-02-03T14:23:28.585Z,3.62
2023-02-03T14:25:59.923Z,3.74
2023-02-03T14:28:40.088Z,3.55
2023-02-03T14:31:16.672Z,3.74
2023-02-03T14:34:05.979Z,3.73
2023-02-03T14:36:40.352Z,3.56
2023-02-03T14:39:56.877Z,3.38
2023-02-03T14:42:45.160Z,3.35
2023-02-03T14:45:27.500Z,3.35
2023-02-03T14:48:08.495Z,3.13
2023-02-03T14:50:54.010Z,3.33
2023-02-03T14:53:40.258Z,3.13
2023-02-03T14:56:19.841Z,3.31
2023-02-03T14:58:51.907Z,3.24
2023-02-03T15:01:29.231Z,3.40
2023-02-03T15:04:23.704Z,3.22
2023-02-03T15:06:53.801Z,2.97
2023-02-03T15:09:29.703Z,2.83
2023-02-03T15:11:57.854Z,3.22
2023-02-03T15:14:27.835Z,2.88
2023-02-03T15:16:58.799Z,2.83
2023-02-03T15:19:30.855Z,2.73
2023-02-03T15:21:59.106Z,3.01
2023-02-03T15:24:27.439Z,2.81
2023-02-03T15:26:57.084Z,2.99
2023-02-03T15:29:29.901Z,2.71
2023-02-03T15:32:06.784Z,3.15
2023-02-03T15:34:40.578Z,2.83
2023-02-03T15:37:13.710Z,2.84
2023-02-03T15:39:51.110Z,2.62
2023-02-03T15:42:23.775Z,2.76
2023-02-03T15:44:57.192Z,2.70
2023-02-03T15:47:33.653Z,2.55
2023-02-03T15:50:08.766Z,2.04
2023-02-03T15:52:43.544Z,2.00
2023-02-03T15:55:21.109Z,2.09
2023-02-03T15:57:51.679Z,2.25
2023-02-03T16:00:33.165Z,1.94
2023-02-03T16:03:03.037Z,2.05
2023-02-03T16:05:34.433Z,2.13
2023-02-03T16:08:29.661Z,2.35
2023-02-03T16:10:58.007Z,2.17
2023-02-03T16:13:27.780Z,2.04
2023-02-03T16:16:01.867Z,2.18
2023-02-03T16:18:30.323Z,1.96
2023-02-03T16:20:59.813Z,2.31
2023-02-03T16:23:29.860Z,2.30
2023-02-03T16:26:06.672Z,2.28
2023-02-03T16:28:52.945Z,2.49
2023-02-03T16:31:40.064Z,2.11
2023-02-03T16:34:32.344Z,2.15
2023-02-03T16:37:20.110Z,2.38
2023-02-03T16:40:05.656Z,2.48
2023-02-03T16:42:56.970Z,2.76
2023-02-03T16:45:42.459Z,2.51
2023-02-03T16:48:29.562Z,2.66
2023-02-03T16:50:59.625Z,2.60
2023-02-03T16:53:31.321Z,3.06
2023-02-03T16:56:01.722Z,3.04
2023-02-03T16:58:29.937Z,2.75
2023-02-03T17:01:00.727Z,2.90
2023-02-03T17:03:30.165Z,2.96
2023-02-03T17:05:58.478Z,3.16
2023-02-03T17:08:27.505Z,2.85
2023-02-03T17:10:57.043Z,3.22
2023-02-03T17:13:25.568Z,3.12
2023-02-03T17:15:53.925Z,3.15
2023-02-03T17:18:22.815Z,3.51
2023-02-03T17:20:51.208Z,3.23
2023-02-03T17:23:19.556Z,3.51
2023-02-03T17:25:48.957Z,3.56
2023-02-03T17:28:18.526Z,3.36
2023-02-03T17:30:46.886Z,3.14
2023-02-03T17:33:15.050Z,3.28
2023-02-03T17:35:44.080Z,3.05
2023-02-03T17:38:12.711Z,3.29
2023-02-03T17:54:36.220Z,3.23
2023-02-03T17:57:04.614Z,3.47
2023-02-03T17:59:35.564Z,3.54
2023-02-03T18:02:03.711Z,3.34
2023-02-03T18:04:31.752Z,3.62
2023-02-03T18:06:59.764Z,3.45
2023-02-03T18:09:28.004Z,3.40
2023-02-03T18:11:56.073Z,3.37
2023-02-03T18:14:24.141Z,3.44
2023-02-03T18:16:53.646Z,3.40
2023-02-03T18:19:21.699Z,3.84
2023-02-03T18:21:49.809Z,4.02
2023-02-03T18:24:19.578Z,4.07
2023-02-03T18:26:50.607Z,3.81
2023-02-03T18:29:19.093Z,4.02
2023-02-03T18:31:47.246Z,3.69
2023-02-03T18:34:17.651Z,3.80
2023-02-03T18:36:46.484Z,3.50
2023-02-03T18:39:16.499Z,3.51
2023-02-03T18:41:44.631Z,3.68
2023-02-03T18:44:12.675Z,3.53
2023-02-03T18:46:40.744Z,3.74
2023-02-03T18:49:10.485Z,3.72
2023-02-03T18:51:39.965Z,3.68
2023-02-03T18:54:08.162Z,3.42
2023-02-03T18:56:36.238Z,3.73
2023-02-03T18:59:09.697Z,3.46
2023-02-03T19:01:38.878Z,3.63
2023-02-03T19:04:08.337Z,3.58
2023-02-03T19:06:37.314Z,3.43
2023-02-03T19:09:07.428Z,3.76
2023-02-03T19:11:35.656Z,3.24
2023-02-03T19:14:03.759Z,3.28
2023-02-03T19:16:31.851Z,3.21
2023-02-03T19:18:59.899Z,3.29
2023-02-03T19:21:28.063Z,3.20
2023-02-03T19:23:56.139Z,3.30
2023-02-03T19:26:26.549Z,3.48
2023-02-03T19:28:55.912Z,3.40
2023-02-03T19:31:24.266Z,3.67
2023-02-03T19:33:52.424Z,3.78
2023-02-03T19:36:20.576Z,3.79
2023-02-03T19:38:48.700Z,3.55
2023-02-03T19:41:16.731Z,3.93
2023-02-03T19:43:47.714Z,3.80
2023-02-03T19:46:15.843Z,3.79
2023-02-03T19:48:43.936Z,3.63
2023-02-03T19:51:12.225Z,3.63
2023-02-03T19:53:40.303Z,3.45
2023-02-03T19:56:08.368Z,3.29
2023-02-03T19:58:36.614Z,3.42
2023-02-03T20:01:06.335Z,3.33
2023-02-03T20:03:34.444Z,3.25
2023-02-03T20:06:02.519Z,3.66
2023-02-03T20:08:30.590Z,3.54
2023-02-03T20:10:58.679Z,3.75
2023-02-03T20:13:26.852Z,3.65
2023-02-03T20:15:55.229Z,3.50
2023-02-03T20:18:24.961Z,3.17
2023-02-03T20:20:53.065Z,3.53
2023-02-03T20:23:21.188Z,3.51
2023-02-03T20:25:50.042Z,3.22
2023-02-03T20:28:18.316Z,3.36
2023-02-03T20:30:46.788Z,3.09
2023-02-03T20:33:14.920Z,3.26
2023-02-03T20:35:44.604Z,3.14
2023-02-03T20:38:12.706Z,3.20
2023-02-03T20:40:40.753Z,3.15
2023-02-03T20:43:16.325Z,3.39
2023-02-03T20:45:44.894Z,3.28
2023-02-03T20:48:14.737Z,3.07
2023-02-03T20:50:47.263Z,3.19
2023-02-03T20:53:17.820Z,3.12
2023-02-03T20:55:45.885Z,3.03
2023-02-03T20:58:19.180Z,2.78
2023-02-03T21:00:47.741Z,3.05
2023-02-03T21:03:35.291Z,2.70
2023-02-03T21:06:12.927Z,3.03
2023-02-03T21:08:41.256Z,2.74
2023-02-03T21:11:11.598Z,2.74
2023-02-03T21:13:40.683Z,2.63
2023-02-03T21:16:16.358Z,2.67
2023-02-03T21:18:49.006Z,2.64
2023-02-03T21:21:24.884Z,2.94
2023-02-03T21:23:54.059Z,2.65
2023-02-03T21:26:23.987Z,2.73
2023-02-03T21:28:53.897Z,2.66
2023-02-03T21:31:25.788Z,2.74
2023-02-03T21:33:54.870Z,2.69
2023-02-03T21:36:25.811Z,2.51
2023-02-03T21:38:55.437Z,2.92
2023-02-03T21:41:25.064Z,2.52
2023-02-03T21:43:54.593Z,2.65
2023-02-03T21:46:26.724Z,2.62
2023-02-03T21:48:55.796Z,2.86
2023-02-03T21:51:26.738Z,2.90
2023-02-03T21:53:57.197Z,2.87
2023-02-03T21:56:27.153Z,3.00
2023-02-03T21:58:58.904Z,2.94
2023-02-03T22:01:28.280Z,2.92
2023-02-03T22:03:58.999Z,3.21
2023-02-03T22:06:30.139Z,3.42
2023-02-03T22:08:59.659Z,3.25
2023-02-03T22:11:29.185Z,3.28
2023-02-03T22:13:57.905Z,3.38
2023-02-03T22:16:26.063Z,2.80
2023-02-03T22:18:54.172Z,3.27
2023-02-03T22:21:23.067Z,3.40
2023-02-03T22:23:52.720Z,3.15
2023-02-03T22:26:21.241Z,3.39
2023-02-03T22:28:49.644Z,3.29
2023-02-03T22:31:18.226Z,3.63
2023-02-03T22:33:47.383Z,3.66
2023-02-03T22:36:15.940Z,3.45
2023-02-03T22:38:44.413Z,3.40
2023-02-03T22:41:14.054Z,3.71
2023-02-03T22:43:42.460Z,3.80
2023-02-03T22:46:10.715Z,3.53
2023-02-03T22:48:38.813Z,3.86
2023-02-03T22:51:07.183Z,3.03
2023-02-03T22:53:35.884Z,3.20
2023-02-03T22:56:04.133Z,3.31
2023-02-03T22:58:33.582Z,3.23
2023-02-03T23:01:01.663Z,3.53
2023-02-03T23:03:32.679Z,3.26
2023-02-03T23:06:01.039Z,3.03
2023-02-03T23:08:29.086Z,3.31
2023-02-03T23:10:57.200Z,3.16
2023-02-03T23:13:25.245Z,3.14
2023-02-03T23:15:54.783Z,3.05
2023-02-03T23:18:22.949Z,3.21
2023-02-03T23:20:50.975Z,3.42
2023-02-03T23:23:19.064Z,3.02
2023-02-03T23:25:47.120Z,3.00
2023-02-03T23:28:15.255Z,3.24
2023-02-03T23:30:43.418Z,3.26
2023-02-03T23:33:12.907Z,2.89
2023-02-03T23:35:46.123Z,2.84
2023-02-03T23:38:14.578Z,2.71
2023-02-03T23:40:42.709Z,3.13
2023-02-03T23:43:10.810Z,2.91
2023-02-03T23:45:38.842Z,2.85
2023-02-03T23:48:07.654Z,2.87
2023-02-03T23:50:37.366Z,2.73
2023-02-03T23:53:06.010Z,3.38
2023-02-03T23:55:34.048Z,3.35
2023-02-03T23:58:02.129Z,2.89
